createdAt,value
2018-03-03T00:00:15.358Z,95883.37
2018-03-03T00:02:42.835Z,95896.41
2018-03-03T00:05:10.277Z,95884.00
2018-03-03T00:07:38.547Z,95891.02
2018-03-03T00:10:06.421Z,95902.14
2018-03-03T00:12:33.917Z,95898.41
2018-03-03T00:15:01.418Z,95898.69
2018-03-03T00:17:28.979Z,95902.25
2018-03-03T00:19:56.463Z,95894.78
2018-03-03T00:25:21.457Z,95895.28
2018-03-03T00:27:48.899Z,95890.26
2018-03-03T00:30:16.377Z,95891.42
2018-03-03T00:32:44.154Z,95889.27
2018-03-03T00:35:11.604Z,95890.31
2018-03-03T00:37:39.091Z,95878.02
2018-03-03T00:40:06.653Z,95901.37
2018-03-03T00:42:34.161Z,95897.66
2018-03-03T00:45:01.603Z,95891.58
2018-03-03T00:47:29.509Z,95893.66
2018-03-03T00:49:57.002Z,95876.84
2018-03-03T00:52:24.582Z,95884.09
2018-03-03T00:54:52.032Z,95879.86
2018-03-03T00:57:19.553Z,95877.04
2018-03-03T00:59:47.025Z,95879.92
2018-03-03T01:02:14.768Z,95876.77
2018-03-03T01:04:42.244Z,95878.45
2018-03-03T01:07:10.213Z,95876.05
2018-03-03T01:09:37.696Z,95885.97
2018-03-03T01:12:05.515Z,95880.81
2018-03-03T01:14:32.956Z,95879.76
2018-03-03T01:17:00.499Z,95877.80
2018-03-03T01:19:27.939Z,95883.50
2018-03-03T01:21:55.408Z,95883.00
2018-03-03T01:24:22.955Z,95883.91
2018-03-03T01:26:50.414Z,95888.56
2018-03-03T01:29:17.855Z,95888.72
2018-03-03T01:31:45.329Z,95881.44
2018-03-03T01:34:12.825Z,95880.70
2018-03-03T01:36:40.347Z,95878.99
2018-03-03T01:39:07.924Z,95895.07
2018-03-03T01:41:35.376Z,95892.83
2018-03-03T01:44:02.851Z,95895.69
2018-03-03T01:46:30.304Z,95885.56
2018-03-03T01:48:57.767Z,95878.46
2018-03-03T01:51:36.974Z,95862.91
2018-03-03T01:54:04.460Z,95883.26
2018-03-03T01:56:31.907Z,95877.70
2018-03-03T01:58:59.384Z,95871.91
2018-03-03T02:01:27.246Z,95875.62
2018-03-03T02:03:54.779Z,95860.13
2018-03-03T02:06:22.314Z,95859.41
2018-03-03T02:08:49.756Z,95859.52
2018-03-03T02:11:17.243Z,95854.77
2018-03-03T02:13:44.804Z,95857.44
2018-03-03T02:16:12.292Z,95855.37
2018-03-03T02:18:39.730Z,95852.32
2018-03-03T02:21:07.195Z,95847.77
2018-03-03T02:23:35.001Z,95843.55
2018-03-03T02:26:02.431Z,95848.20
2018-03-03T02:28:29.913Z,95841.05
2018-03-03T02:30:57.372Z,95837.74
2018-03-03T02:33:24.830Z,95844.09
2018-03-03T02:35:52.292Z,95835.62
2018-03-03T02:38:19.781Z,95838.80
2018-03-03T02:40:47.218Z,95830.59
2018-03-03T02:43:14.858Z,95822.00
2018-03-03T02:45:42.571Z,95815.42
2018-03-03T02:48:10.071Z,95818.42
2018-03-03T02:50:37.643Z,95809.63
2018-03-03T02:53:05.209Z,95808.97
2018-03-03T02:55:32.841Z,95810.05
2018-03-03T02:58:00.476Z,95806.85
2018-03-03T03:00:27.955Z,95802.48
2018-03-03T03:02:55.404Z,95805.22
2018-03-03T03:05:22.889Z,95802.06
2018-03-03T03:07:50.338Z,95800.73
2018-03-03T03:10:17.794Z,95792.56
2018-03-03T03:12:45.284Z,95788.23
2018-03-03T03:15:12.725Z,95783.27
2018-03-03T03:17:40.230Z,95784.45
2018-03-03T03:20:07.683Z,95788.26
2018-03-03T03:22:35.184Z,95783.31
2018-03-03T03:25:02.631Z,95782.77
2018-03-03T03:27:30.093Z,95771.55
2018-03-03T03:29:57.595Z,95785.16
2018-03-03T03:32:25.038Z,95781.06
2018-03-03T03:34:52.515Z,95769.86
2018-03-03T03:37:19.964Z,95772.80
2018-03-03T03:39:47.440Z,95769.60
2018-03-03T03:42:14.900Z,95771.84
2018-03-03T03:44:42.374Z,95765.88
2018-03-03T03:47:10.244Z,95768.08
2018-03-03T03:49:37.718Z,95757.09
2018-03-03T03:52:05.259Z,95760.44
2018-03-03T03:54:32.707Z,95755.02
2018-03-03T03:57:00.164Z,95752.14
2018-03-03T03:59:27.629Z,95748.45
2018-03-03T04:01:55.111Z,95743.70
2018-03-03T04:04:22.543Z,95731.13
2018-03-03T04:06:50.019Z,95728.09
2018-03-03T04:09:17.461Z,95728.50
2018-03-03T04:11:44.948Z,95724.58
2018-03-03T04:14:12.396Z,95727.62
2018-03-03T04:16:39.891Z,95714.41
2018-03-03T04:19:07.327Z,95709.64
2018-03-03T04:21:34.773Z,95706.20
2018-03-03T04:24:02.254Z,95697.52
2018-03-03T04:26:29.754Z,95710.19
2018-03-03T04:28:57.231Z,95709.15
2018-03-03T04:31:24.720Z,95701.48
2018-03-03T04:33:52.189Z,95701.87
2018-03-03T04:36:19.635Z,95698.71
2018-03-03T04:38:47.096Z,95699.11
2018-03-03T04:41:14.548Z,95694.23
2018-03-03T04:43:42.456Z,95690.97
2018-03-03T04:46:09.943Z,95693.11
2018-03-03T04:48:37.418Z,95688.86
2018-03-03T04:51:04.889Z,95688.97
2018-03-03T04:53:32.322Z,95690.17
2018-03-03T04:55:59.837Z,95676.95
2018-03-03T05:01:38.946Z,95684.45
2018-03-03T05:04:11.959Z,95681.77
2018-03-03T05:06:40.236Z,95685.51
2018-03-03T05:09:07.738Z,95669.53
2018-03-03T05:11:35.643Z,95674.38
2018-03-03T05:14:04.944Z,95666.61
2018-03-03T05:16:37.940Z,95661.06
2018-03-03T05:19:11.002Z,95663.41
2018-03-03T05:24:58.852Z,95664.14
2018-03-03T05:27:27.821Z,95660.89
2018-03-03T05:29:58.743Z,95667.14
2018-03-03T05:35:29.671Z,95658.55
2018-03-03T05:41:13.592Z,95657.95
2018-03-03T05:43:46.721Z,95659.39
2018-03-03T05:49:36.268Z,95662.80
2018-03-03T05:52:09.437Z,95654.09
2018-03-03T05:54:38.732Z,95650.91
2018-03-03T05:57:11.715Z,95650.25
2018-03-03T06:02:49.890Z,95643.66
2018-03-03T06:05:22.801Z,95651.47
2018-03-03T06:07:55.824Z,95652.44
2018-03-03T06:10:27.765Z,95657.09
2018-03-03T06:12:55.227Z,95660.31
2018-03-03T06:15:22.727Z,95660.19
2018-03-03T06:17:50.318Z,95655.22
2018-03-03T06:20:17.767Z,95656.60
2018-03-03T06:22:45.205Z,95661.09
2018-03-03T06:25:12.726Z,95658.87
2018-03-03T06:27:40.158Z,95657.07
2018-03-03T06:30:07.635Z,95660.01
2018-03-03T06:32:35.938Z,95651.33
2018-03-03T06:35:03.404Z,95654.40
2018-03-03T06:37:30.907Z,95651.28
2018-03-03T06:39:58.475Z,95647.95
2018-03-03T06:42:25.988Z,95648.97
2018-03-03T06:44:53.436Z,95650.48
2018-03-03T06:47:20.902Z,95650.30
2018-03-03T06:49:48.348Z,95648.37
2018-03-03T06:52:15.856Z,95648.51
2018-03-03T06:54:43.373Z,95648.06
2018-03-03T06:57:10.842Z,95648.47
2018-03-03T06:59:38.292Z,95648.40
2018-03-03T07:02:06.607Z,95645.61
2018-03-03T07:04:34.047Z,95639.70
2018-03-03T07:07:01.540Z,95646.63
2018-03-03T07:09:28.983Z,95644.13
2018-03-03T07:11:56.454Z,95638.80
2018-03-03T07:17:27.857Z,95637.45
2018-03-03T07:19:55.337Z,95640.51
2018-03-03T07:22:22.915Z,95644.39
2018-03-03T07:24:50.504Z,95654.14
2018-03-03T07:27:18.102Z,95654.65
2018-03-03T07:29:45.696Z,95663.38
2018-03-03T07:32:13.351Z,95660.50
2018-03-03T07:34:40.866Z,95656.84
2018-03-03T07:37:08.333Z,95658.72
2018-03-03T07:39:35.827Z,95664.37
2018-03-03T07:42:03.449Z,95657.05
2018-03-03T07:44:31.268Z,95656.27
2018-03-03T07:46:58.706Z,95649.41
2018-03-03T07:49:26.223Z,95645.89
2018-03-03T07:51:53.736Z,95646.74
2018-03-03T07:54:21.201Z,95643.80
2018-03-03T07:56:56.667Z,95638.06
2018-03-03T07:59:24.215Z,95634.84
2018-03-03T08:01:51.950Z,95634.11
2018-03-03T08:04:20.226Z,95634.02
2018-03-03T08:06:48.211Z,95627.52
2018-03-03T08:09:15.678Z,95625.14
2018-03-03T08:11:43.993Z,95621.23
2018-03-03T08:14:12.406Z,95621.95
2018-03-03T08:16:39.963Z,95621.88
2018-03-03T08:21:43.322Z,95624.99
2018-03-03T08:24:11.007Z,95619.23
2018-03-03T08:26:38.491Z,95623.11
2018-03-03T08:29:06.283Z,95620.35
2018-03-03T08:31:34.410Z,95616.73
2018-03-03T08:34:02.740Z,95618.86
2018-03-03T08:36:30.684Z,95619.05
2018-03-03T08:38:58.181Z,95622.69
2018-03-03T08:41:25.808Z,95614.47
2018-03-03T08:43:54.973Z,95608.36
2018-03-03T08:46:23.170Z,95613.14
2018-03-03T08:48:50.767Z,95601.68
2018-03-03T08:51:18.686Z,95608.13
2018-03-03T08:53:46.141Z,95607.90
2018-03-03T08:56:13.638Z,95599.60
2018-03-03T08:58:41.403Z,95605.65
2018-03-03T09:01:09.571Z,95603.09
2018-03-03T09:03:37.343Z,95602.07
2018-03-03T09:06:04.807Z,95602.48
2018-03-03T09:08:32.286Z,95599.05
2018-03-03T09:10:59.816Z,95602.80
2018-03-03T09:13:27.308Z,95596.11
2018-03-03T09:15:54.858Z,95594.70
2018-03-03T09:18:22.683Z,95592.13
2018-03-03T09:20:50.166Z,95586.53
2018-03-03T09:23:17.765Z,95591.20
2018-03-03T09:28:17.603Z,95591.91
2018-03-03T09:30:45.898Z,95588.58
2018-03-03T09:33:13.418Z,95591.70
2018-03-03T09:35:42.143Z,95587.89
2018-03-03T09:38:10.368Z,95582.63
2018-03-03T09:40:37.874Z,95595.70
2018-03-03T09:43:05.650Z,95587.06
2018-03-03T09:45:33.946Z,95590.95
2018-03-03T09:48:01.864Z,95591.33
2018-03-03T09:50:29.459Z,95582.30
2018-03-03T09:52:57.249Z,95583.08
2018-03-03T09:55:24.749Z,95578.16
2018-03-03T09:57:52.271Z,95577.08
2018-03-03T10:00:20.365Z,95577.03
2018-03-03T10:02:47.837Z,95574.44
2018-03-03T10:05:15.864Z,95569.02
2018-03-03T10:07:44.226Z,95570.05
2018-03-03T10:10:12.015Z,95565.02
2018-03-03T10:12:39.535Z,95566.07
2018-03-03T10:15:11.370Z,95563.72
2018-03-03T10:17:39.702Z,95563.42
2018-03-03T10:20:07.682Z,95559.67
2018-03-03T10:22:35.181Z,95558.84
2018-03-03T10:25:02.662Z,95555.32
2018-03-03T10:27:30.163Z,95560.71
2018-03-03T10:29:57.636Z,95559.94
2018-03-03T10:32:25.834Z,95556.92
2018-03-03T10:34:53.382Z,95557.91
2018-03-03T10:37:20.830Z,95562.23
2018-03-03T10:39:48.438Z,95555.55
2018-03-03T10:42:15.898Z,95549.77
2018-03-03T10:44:44.280Z,95546.27
2018-03-03T10:47:11.913Z,95544.30
2018-03-03T10:49:39.439Z,95538.47
2018-03-03T10:52:07.354Z,95537.14
2018-03-03T10:54:34.839Z,95539.95
2018-03-03T10:57:02.419Z,95534.78
2018-03-03T10:59:30.049Z,95531.12
2018-03-03T11:01:57.535Z,95532.66
2018-03-03T11:04:25.072Z,95533.78
2018-03-03T11:06:52.566Z,95525.70
2018-03-03T11:09:20.033Z,95526.39
2018-03-03T11:11:47.745Z,95529.47
2018-03-03T11:14:15.311Z,95523.96
2018-03-03T11:16:42.857Z,95532.75
2018-03-03T11:19:10.371Z,95536.25
2018-03-03T11:21:39.155Z,95526.22
2018-03-03T11:24:08.621Z,95535.15
2018-03-03T11:26:36.135Z,95529.73
2018-03-03T11:29:04.092Z,95528.95
2018-03-03T11:31:34.461Z,95529.27
2018-03-03T11:34:02.809Z,95519.63
2018-03-03T11:36:30.670Z,95520.98
2018-03-03T11:39:00.181Z,95517.13
2018-03-03T11:41:27.649Z,95529.77
2018-03-03T11:43:57.324Z,95525.38
2018-03-03T11:46:26.478Z,95525.65
2018-03-03T11:48:59.306Z,95533.73
2018-03-03T11:51:30.502Z,95531.02
2018-03-03T11:53:58.531Z,95532.88
2018-03-03T11:56:26.528Z,95532.55
2018-03-03T11:58:54.618Z,95533.40
2018-03-03T12:01:26.434Z,95530.98
2018-03-03T12:03:54.841Z,95539.78
2018-03-03T12:06:22.263Z,95535.33
2018-03-03T12:08:51.451Z,95548.33
2018-03-03T12:11:18.964Z,95540.16
2018-03-03T12:13:46.423Z,95544.66
2018-03-03T12:16:14.165Z,95543.03
2018-03-03T12:18:42.662Z,95531.80
2018-03-03T12:21:10.825Z,95541.22
2018-03-03T12:24:02.159Z,95541.30
2018-03-03T12:26:31.414Z,95532.27
2018-03-03T12:28:59.011Z,95530.00
2018-03-03T12:31:27.364Z,95530.19
2018-03-03T12:33:55.050Z,95525.61
2018-03-03T12:36:23.206Z,95532.53
2018-03-03T12:38:50.868Z,95536.15
2018-03-03T12:41:18.426Z,95536.61
2018-03-03T12:43:46.303Z,95543.27
2018-03-03T12:46:13.787Z,95537.51
2018-03-03T12:48:41.920Z,95537.56
2018-03-03T12:51:09.496Z,95533.72
2018-03-03T12:53:37.120Z,95535.76
2018-03-03T12:56:04.600Z,95535.42
2018-03-03T12:58:32.248Z,95542.80
2018-03-03T13:01:01.563Z,95548.30
2018-03-03T13:03:29.887Z,95547.06
2018-03-03T13:05:57.448Z,95540.13
2018-03-03T13:08:25.194Z,95542.91
2018-03-03T13:10:54.380Z,95534.81
2018-03-03T13:13:22.729Z,95542.99
2018-03-03T13:15:51.222Z,95544.68
2018-03-03T13:18:19.865Z,95554.86
2018-03-03T13:20:47.373Z,95560.17
2018-03-03T13:23:14.981Z,95557.73
2018-03-03T13:25:44.021Z,95551.27
2018-03-03T13:28:11.913Z,95557.20
2018-03-03T13:30:39.802Z,95555.70
2018-03-03T13:33:07.643Z,95554.75
2018-03-03T13:35:35.176Z,95550.50
2018-03-03T13:38:02.666Z,95564.09
2018-03-03T13:40:30.257Z,95565.83
2018-03-03T13:42:57.851Z,95570.67
2018-03-03T13:45:25.317Z,95567.00
2018-03-03T13:47:52.780Z,95564.08
2018-03-03T13:50:20.279Z,95563.61
2018-03-03T13:52:47.759Z,95564.72
2018-03-03T13:55:15.309Z,95572.56
2018-03-03T13:57:43.670Z,95577.91
2018-03-03T14:00:11.181Z,95577.59
2018-03-03T14:02:38.676Z,95589.42
2018-03-03T14:05:06.166Z,95603.63
2018-03-03T14:07:33.638Z,95614.02
2018-03-03T14:10:01.249Z,95609.64
2018-03-03T14:12:29.614Z,95615.00
2018-03-03T14:14:57.395Z,95617.17
2018-03-03T14:17:25.011Z,95617.51
2018-03-03T14:19:52.501Z,95606.84
2018-03-03T14:22:23.570Z,95625.14
2018-03-03T14:24:51.704Z,95617.00
2018-03-03T14:27:19.187Z,95621.42
2018-03-03T14:29:46.713Z,95625.35
2018-03-03T14:32:15.042Z,95628.73
2018-03-03T14:34:42.798Z,95631.21
2018-03-03T14:37:10.277Z,95631.81
2018-03-03T14:39:37.908Z,95630.89
2018-03-03T14:42:05.395Z,95636.02
2018-03-03T14:44:33.551Z,95631.04
2018-03-03T14:47:01.550Z,95636.25
2018-03-03T14:49:29.050Z,95635.92
2018-03-03T14:51:56.560Z,95640.75
2018-03-03T14:54:24.083Z,95647.03
2018-03-03T14:56:51.588Z,95650.38
2018-03-03T14:59:19.423Z,95660.06
2018-03-03T15:01:46.907Z,95669.03
2018-03-03T15:04:15.554Z,95665.45
2018-03-03T15:06:43.081Z,95672.79
2018-03-03T15:09:10.643Z,95681.11
2018-03-03T15:11:38.137Z,95674.60
2018-03-03T15:14:05.617Z,95688.15
2018-03-03T15:16:33.312Z,95693.86
2018-03-03T15:19:01.212Z,95698.84
2018-03-03T15:21:32.253Z,95705.45
2018-03-03T15:24:00.210Z,95715.47
2018-03-03T15:29:04.527Z,95715.59
2018-03-03T15:31:33.722Z,95716.98
2018-03-03T15:34:03.608Z,95717.47
2018-03-03T15:36:32.484Z,95718.16
2018-03-03T15:39:00.817Z,95719.64
2018-03-03T15:41:28.714Z,95725.91
2018-03-03T15:43:57.039Z,95723.43
2018-03-03T15:46:24.653Z,95728.53
2018-03-03T15:48:52.346Z,95732.94
2018-03-03T15:51:19.867Z,95739.89
2018-03-03T15:53:47.351Z,95744.52
2018-03-03T15:56:14.952Z,95755.42
2018-03-03T15:58:42.462Z,95757.33
2018-03-03T16:03:43.906Z,95767.03
2018-03-03T16:06:11.411Z,95768.92
2018-03-03T16:08:40.118Z,95777.40
2018-03-03T16:11:07.720Z,95775.22
2018-03-03T16:13:35.681Z,95785.58
2018-03-03T16:18:35.415Z,95787.83
2018-03-03T16:21:02.904Z,95788.39
2018-03-03T16:23:30.400Z,95791.77
2018-03-03T16:25:57.954Z,95790.42
2018-03-03T16:28:25.451Z,95799.02
2018-03-03T16:30:53.001Z,95799.87
2018-03-03T16:33:20.570Z,95797.34
2018-03-03T16:35:48.072Z,95806.45
2018-03-03T16:38:15.569Z,95809.51
2018-03-03T16:40:43.051Z,95815.63
2018-03-03T16:43:10.618Z,95810.09
2018-03-03T16:45:38.126Z,95818.11
2018-03-03T16:48:05.586Z,95818.98
2018-03-03T16:50:33.869Z,95821.05
2018-03-03T16:53:01.367Z,95817.91
2018-03-03T16:55:29.335Z,95827.09
2018-03-03T16:57:58.143Z,95833.05
2018-03-03T17:00:26.502Z,95831.98
2018-03-03T17:02:54.166Z,95831.72
2018-03-03T17:05:22.388Z,95832.84
2018-03-03T17:07:53.477Z,95833.77
2018-03-03T17:10:21.243Z,95838.23
2018-03-03T17:12:48.737Z,95843.47
2018-03-03T17:15:16.686Z,95844.02
2018-03-03T17:17:44.150Z,95847.83
2018-03-03T17:20:11.712Z,95861.02
2018-03-03T17:22:39.378Z,95865.27
2018-03-03T17:25:06.987Z,95869.33
2018-03-03T17:27:34.693Z,95869.80
2018-03-03T17:30:02.274Z,95876.06
2018-03-03T17:32:29.769Z,95873.59
2018-03-03T17:34:57.291Z,95873.77
2018-03-03T17:37:25.007Z,95876.14
2018-03-03T17:39:52.602Z,95881.33
2018-03-03T17:42:22.151Z,95879.95
2018-03-03T17:44:49.620Z,95881.95
2018-03-03T17:47:17.152Z,95881.94
2018-03-03T17:49:44.686Z,95881.42
2018-03-03T17:52:12.178Z,95859.38
2018-03-03T17:54:39.664Z,95879.31
2018-03-03T17:57:07.153Z,95884.02
2018-03-03T17:59:34.624Z,95882.19
2018-03-03T18:02:02.204Z,95882.66
2018-03-03T18:04:29.714Z,95883.17
2018-03-03T18:06:57.222Z,95894.45
2018-03-03T18:09:24.707Z,95878.24
2018-03-03T18:11:59.142Z,95879.22
2018-03-03T18:14:26.609Z,95887.19
2018-03-03T18:16:54.141Z,95888.69
2018-03-03T18:19:40.293Z,95887.61
2018-03-03T18:22:07.926Z,95888.92
2018-03-03T18:24:36.406Z,95887.55
2018-03-03T18:27:04.448Z,95887.94
2018-03-03T18:29:31.999Z,95890.98
2018-03-03T18:31:59.464Z,95892.89
2018-03-03T18:34:26.951Z,95887.88
2018-03-03T18:36:54.550Z,95903.89
2018-03-03T18:39:22.016Z,95911.14
2018-03-03T18:41:49.481Z,95916.80
2018-03-03T18:44:16.991Z,95915.21
2018-03-03T18:46:44.517Z,95922.50
2018-03-03T18:49:11.991Z,95918.05
2018-03-03T18:51:40.188Z,95921.37
2018-03-03T18:54:07.734Z,95920.91
2018-03-03T18:56:35.219Z,95916.91
2018-03-03T18:59:04.152Z,95915.71
2018-03-03T19:01:31.623Z,95927.47
2018-03-03T19:03:59.138Z,95923.84
2018-03-03T19:06:26.621Z,95935.28
2018-03-03T19:08:54.173Z,95932.50
2018-03-03T19:11:21.653Z,95933.56
2018-03-03T19:13:49.250Z,95936.52
2018-03-03T19:16:16.850Z,95933.22
2018-03-03T19:18:44.479Z,95934.52
2018-03-03T19:21:12.091Z,95929.29
2018-03-03T19:23:39.689Z,95932.13
2018-03-03T19:26:07.244Z,95938.66
2018-03-03T19:28:35.198Z,95949.00
2018-03-03T19:31:02.731Z,95951.08
2018-03-03T19:33:30.241Z,95950.44
2018-03-03T19:35:57.853Z,95956.08
2018-03-03T19:38:25.878Z,95955.46
2018-03-03T19:40:53.406Z,95960.97
2018-03-03T19:43:20.906Z,95966.98
2018-03-03T19:45:48.379Z,95968.98
2018-03-03T19:48:15.889Z,95969.23
2018-03-03T19:50:43.380Z,95973.42
2018-03-03T19:53:10.886Z,95967.62
2018-03-03T19:55:38.371Z,95972.55
2018-03-03T19:58:05.934Z,95968.36
2018-03-03T20:00:33.534Z,95966.39
2018-03-03T20:03:01.042Z,95970.09
2018-03-03T20:05:28.696Z,95967.46
2018-03-03T20:07:56.214Z,95974.40
2018-03-03T20:10:23.705Z,95975.50
2018-03-03T20:12:51.188Z,95982.44
2018-03-03T20:15:18.740Z,95984.67
2018-03-03T20:17:46.194Z,95981.17
2018-03-03T20:20:14.246Z,95982.98
2018-03-03T20:22:41.845Z,95994.89
2018-03-03T20:25:09.377Z,95984.72
2018-03-03T20:27:36.814Z,95986.56
2018-03-03T20:30:04.550Z,95995.91
2018-03-03T20:32:32.150Z,95996.78
2018-03-03T20:34:59.786Z,95998.83
2018-03-03T20:37:28.690Z,95990.99
2018-03-03T20:39:56.237Z,95996.30
2018-03-03T20:42:24.234Z,96001.50
2018-03-03T20:44:51.976Z,95998.11
2018-03-03T20:47:19.474Z,95997.09
2018-03-03T20:49:48.399Z,96000.00
2018-03-03T20:52:15.918Z,95997.72
2018-03-03T20:54:43.447Z,95999.87
2018-03-03T20:57:10.991Z,95996.02
2018-03-03T20:59:38.599Z,95995.22
2018-03-03T21:02:06.164Z,95994.30
2018-03-03T21:04:33.908Z,95995.16
2018-03-03T21:07:01.378Z,95990.19
2018-03-03T21:09:29.985Z,95997.45
2018-03-03T21:12:07.425Z,95991.70
2018-03-03T21:14:34.892Z,95999.03
2018-03-03T21:17:02.470Z,95993.27
2018-03-03T21:19:29.936Z,95993.97
2018-03-03T21:21:57.461Z,95985.70
2018-03-03T21:24:24.941Z,95996.50
2018-03-03T21:26:52.480Z,95999.89
2018-03-03T21:29:19.956Z,95994.23
2018-03-03T21:31:47.408Z,95990.44
2018-03-03T21:34:14.887Z,96000.91
2018-03-03T21:36:42.340Z,96000.59
2018-03-03T21:39:09.855Z,96003.81
2018-03-03T21:41:37.454Z,96004.52
2018-03-03T21:44:05.031Z,95999.90
2018-03-03T21:46:32.664Z,96001.00
2018-03-03T21:49:00.203Z,96000.11
2018-03-03T21:51:27.664Z,95996.57
2018-03-03T21:53:56.523Z,95999.17
2018-03-03T21:56:24.045Z,96004.05
2018-03-03T21:58:51.541Z,96011.07
2018-03-03T22:01:19.132Z,96012.25
2018-03-03T22:03:46.793Z,96015.55
2018-03-03T22:06:14.381Z,96019.01
2018-03-03T22:08:41.826Z,96013.98
2018-03-03T22:11:09.292Z,96017.52
2018-03-03T22:13:36.817Z,96018.69
2018-03-03T22:16:04.307Z,96023.98
2018-03-03T22:18:31.759Z,96022.97
2018-03-03T22:20:59.235Z,96018.45
2018-03-03T22:23:26.697Z,96024.45
2018-03-03T22:25:54.198Z,96028.31
2018-03-03T22:28:21.711Z,96030.84
2018-03-03T22:30:49.157Z,96027.84
2018-03-03T22:33:16.622Z,96022.55
2018-03-03T22:35:44.114Z,96025.94
2018-03-03T22:38:11.602Z,96024.14
2018-03-03T22:40:39.054Z,96025.55
2018-03-03T22:43:06.518Z,96031.11
2018-03-03T22:45:33.994Z,96034.03
2018-03-03T22:48:01.461Z,96028.22
2018-03-03T22:50:28.942Z,96018.14
2018-03-03T22:52:56.399Z,96031.99
2018-03-03T22:55:23.861Z,96033.94
2018-03-03T22:57:51.338Z,96033.58
2018-03-03T23:00:18.794Z,96036.70
2018-03-03T23:02:46.291Z,96043.01
2018-03-03T23:05:13.839Z,96036.13
2018-03-03T23:07:41.303Z,96045.80
2018-03-03T23:10:09.173Z,96047.68
2018-03-03T23:12:36.623Z,96044.89
2018-03-03T23:15:04.185Z,96051.65
2018-03-03T23:17:31.662Z,96048.56
2018-03-03T23:19:59.145Z,96054.77
2018-03-03T23:22:26.604Z,96057.77
2018-03-03T23:24:54.105Z,96075.54
2018-03-03T23:27:21.552Z,96084.68
2018-03-03T23:29:49.566Z,96089.87
2018-03-03T23:32:17.042Z,96087.22
2018-03-03T23:34:44.575Z,96086.97
2018-03-03T23:37:12.020Z,96087.98
2018-03-03T23:39:39.496Z,96087.69
2018-03-03T23:42:06.946Z,96087.53
2018-03-03T23:44:34.427Z,96098.54
2018-03-03T23:47:01.900Z,96097.01
2018-03-03T23:49:29.393Z,96105.75
2018-03-03T23:51:56.885Z,96098.80
2018-03-03T23:54:24.395Z,96112.81
2018-03-03T23:56:52.109Z,96109.20
2018-03-03T23:59:19.575Z,96111.48
